Cosco Tengfei — HPMO — position and weather

sailwx.info

Track history (hours):
 
Tides and Currents Weather Stations Pressure Air Temp Water Temp Dewpoint Dewpoint Depression Visibility Wind Speed Wind Dir Waves Ship Positions

Cosco Tengfei

Last reported at 2017-Feb-17 23:06 UTC. Time now 2017-Feb-21 07:58 UTC.
Position N 33°09' E 132°05'.

Length 183 m; draft 8.3 m.

Type: Cargo ship. MMSI: 355518000.

Date/timePositionNaut miles runAvg speedWind from/ knotsBaromVisibWave heightAir tempDewpointWater temp
2017-Feb-17 23:06N 33°09' E 132°05'15111.1
2017-Feb-17 09:33N 33°58' E 134°56'1514.7
2017-Feb-17 08:33N 34°13' E 134°56'1313.2
2017-Feb-17 07:33N 34°24' E 135°03'1616.2
2017-Feb-17 06:33N 34°32' E 135°21'3 2.8
2017-Feb-17 05:33N 34°32' E 135°24'0 0.0
2017-Feb-17 04:33N 34°32' E 135°24'0 0.0
2017-Feb-17 03:33N 34°32' E 135°24'0 0.0
2017-Feb-17 02:33N 34°32' E 135°24'0 0.0
2017-Feb-17 01:33N 34°32' E 135°24'0 0.0
2017-Feb-17 00:33N 34°32' E 135°24'0 0.0
2017-Feb-16 23:33N 34°32' E 135°24'0 0.0
2017-Feb-16 22:27N 34°32' E 135°24'8 9.3
2017-Feb-16 21:34N 34°30' E 135°14'1615.9
2017-Feb-16 20:33N 34°19' E 135°01'1312.7
2017-Feb-16 19:33N 34°06' E 135°00'239 7.0
2017-Feb-15 09:27N 35°00' E 139°42'1213.7
2017-Feb-15 08:33N 35°12' E 139°46'1010.5
2017-Feb-15 07:33N 35°22' E 139°42'8 8.3
2017-Feb-15 06:32N 35°30' E 139°46'0 0.0
2017-Feb-15 05:32N 35°30' E 139°46'0 0.0
2017-Feb-15 04:32N 35°30' E 139°46'0 0.0
2017-Feb-15 03:32N 35°30' E 139°46'0 0.0
2017-Feb-15 02:32N 35°30' E 139°46'0 0.0
2017-Feb-15 01:32N 35°30' E 139°46'0 0.0
2017-Feb-15 00:32N 35°30' E 139°46'0 0.0
2017-Feb-14 23:32N 35°30' E 139°46'0 0.5
2017-Feb-14 22:33N 35°30' E 139°47'1111.0
2017-Feb-14 21:33N 35°19' E 139°44'1110.6
2017-Feb-14 20:33N 35°08' E 139°46'  
Track history (hours):
 
Tides and Currents Weather Stations Pressure Air Temp Water Temp Dewpoint Dewpoint Depression Visibility Wind Speed Wind Dir Waves Ship Positions

Cosco Tengfei

Last reported at 2017-Feb-17 23:06 UTC. Time now 2017-Feb-21 07:58 UTC.
Position N 33°09' E 132°05'.

Length 183 m; draft 8.3 m.

Type: Cargo ship. MMSI: 355518000.

Date/timePositionNaut miles runAvg speedWind from/ knotsBaromVisibWave heightAir tempDewpointWater temp
2017-Feb-17 23:06N 33°09' E 132°05'15111.1
2017-Feb-17 09:33N 33°58' E 134°56'1514.7
2017-Feb-17 08:33N 34°13' E 134°56'1313.2
2017-Feb-17 07:33N 34°24' E 135°03'1616.2
2017-Feb-17 06:33N 34°32' E 135°21'3 2.8
2017-Feb-17 05:33N 34°32' E 135°24'0 0.0
2017-Feb-17 04:33N 34°32' E 135°24'0 0.0
2017-Feb-17 03:33N 34°32' E 135°24'0 0.0
2017-Feb-17 02:33N 34°32' E 135°24'0 0.0
2017-Feb-17 01:33N 34°32' E 135°24'0 0.0
2017-Feb-17 00:33N 34°32' E 135°24'0 0.0
2017-Feb-16 23:33N 34°32' E 135°24'0 0.0
2017-Feb-16 22:27N 34°32' E 135°24'8 9.3
2017-Feb-16 21:34N 34°30' E 135°14'1615.9
2017-Feb-16 20:33N 34°19' E 135°01'1312.7
2017-Feb-16 19:33N 34°06' E 135°00'239 7.0
2017-Feb-15 09:27N 35°00' E 139°42'1213.7
2017-Feb-15 08:33N 35°12' E 139°46'1010.5
2017-Feb-15 07:33N 35°22' E 139°42'8 8.3
2017-Feb-15 06:32N 35°30' E 139°46'0 0.0
2017-Feb-15 05:32N 35°30' E 139°46'0 0.0
2017-Feb-15 04:32N 35°30' E 139°46'0 0.0
2017-Feb-15 03:32N 35°30' E 139°46'0 0.0
2017-Feb-15 02:32N 35°30' E 139°46'0 0.0
2017-Feb-15 01:32N 35°30' E 139°46'0 0.0
2017-Feb-15 00:32N 35°30' E 139°46'0 0.0
2017-Feb-14 23:32N 35°30' E 139°46'0 0.5
2017-Feb-14 22:33N 35°30' E 139°47'1111.0
2017-Feb-14 21:33N 35°19' E 139°44'1110.6
2017-Feb-14 20:33N 35°08' E 139°46'  

Dump ship's entire track history